Green Bay, WI

4:45 AM CDT on July 24, 2016 (GMT -0500)
Lloyd Street | | Change Station

Elev 600 ft 44.59 °N, 87.89 °W | Updated 60 seconds ago

Overcast
Overcast
71.8 °F
Feels Like 72 °F
N
3.2
Wind Variable Wind from WNW

Today
High -- | Low -- °F
--% Chance of Precip.
Yesterday
High -- | Low -- °F
Precip. -- in
Pressure 29.83 in
Visibility 10.0 miles
Clouds Few 1800 ft
Mostly Cloudy 2700 ft
Overcast 5500 ft
Heat Index 72 °F
Dew Point 66 °F
Humidity 81%
Rainfall 0.09 in
Snow Depth Not available.
5:29 AM 8:25 PM
Waning Gibbous, 78% visible
SPECI KGRB 240941Z AUTO 20005KT 10SM FEW018 BKN027 OVC055 22/22 A2983 RMK AO2 LTG DSNT SE RAB07E19 P0001 T02170217
Pressure 29.83 in
Visibility 10.0 miles
Clouds Few 1800 ft
Mostly Cloudy 2700 ft
Overcast 5500 ft
Heat Index 72 °F
Dew Point 66 °F
Humidity 81%
Rainfall 0.09 in
Snow Depth Not available.
5:29 AM 8:25 PM
Waning Gibbous, 78% visible
SPECI KGRB 240941Z AUTO 20005KT 10SM FEW018 BKN027 OVC055 22/22 A2983 RMK AO2 LTG DSNT SE RAB07E19 P0001 T02170217

10-Day Weather Forecast

Almanac

Astronomy

Jul. 24, 2016 Rise Set
Actual Time
Civil Twilight
Nautical Twilight
Astronomical Twilight
Moon
Length of Visible Light
Length of Day
Tomorrow will be .
, % of the Moon is Illuminated

Today's Extremes

State Highs State Lows

Community

WunderPhotos

Upload Photos

1,927,042 photos uploaded!

WunderBlog® & News

Nearby

Air Quality

  Air Quality AQ Index Pollutant
Not available.

Snow Depth

Station Depth Elevation

Earthquake Activity

City Distance Mag. Time & Date
Minimum magnitude displayed is 2.5.

Coastal Water Temperatures

Place Temperature

Stations

Nearby Weather Stations

Station Location Temp. Windchill Dew Point Humidity Wind Precip. Elev Updated Type
                   

Watches & Warnings

There are currently no watches in effect.